Weather History for Southern Pines, NC

Change the Weather History Date:

Wednesday, November 23, 2011

  Actual Average Record
Temperature  
Mean Temperature 60 °F -  
Max Temperature 71 °F 59 °F 75 °F (2010)
Min Temperature 48 °F 37 °F 21 °F (1996)
Degree Days  
Heating Degree Days 6    
Growing Degree Days 10 (Base 50)    
Moisture  
Dew Point 50 °F    
Average Humidity 67    
Maximum Humidity 94    
Minimum Humidity 39    
Precipitation  
Precipitation 0.50 in - - ()
Sea Level Pressure  
Sea Level Pressure 29.88 in    
Wind  
Wind Speed 11 mph (West)    
Max Wind Speed 16 mph    
Max Gust Speed 31 mph    
Visibility 10 miles    
Events      
Averages and records for this station are not official NWS values.
T = Trace of Precipitation, MM = Missing Value Source: NWS Daily Summary

Daily Weather History Graph

Daily Weather History Graph

Search for Another Location

Airport:

Trip Planner

Search our weather history database for the weather conditions in past years. The results will help you decide how hot, cold, wet, or windy it might be!

Date:

Astronomy

Nov. 23, 2011 Rise Set
Actual Time 7:00 AM EST 5:07 PM EST
Civil Twilight 6:32 AM EST 5:34 PM EST
Nautical Twilight 6:01 AM EST 6:05 PM EST
Astronomical Twilight 5:31 AM EST 6:36 PM EST
Moon 5:04 AM EST (11/23) 3:46 PM EST (11/23)
Length of Visible Light 11h 02m
Length of Day
10h 07m
Waning Crescent, 4% of the Moon is Illuminated
Nov 23
Waning Crescent
Nov 25
New
Dec 2
First Quarter
Dec 10
Full
Dec 17
Last Quarter

Hourly Weather History & Observations

Time (EST) Temp. Windchill Dew Point Humidity Pressure Visibility Wind Dir Wind Speed Gust Speed Precip Events Conditions
12:15 AM 66.2 °F - 60.8 °F 83% 29.93 in 10.0 mi SSW 12.7 mph 24.2 mph N/A   Mostly Cloudy
12:35 AM 66.2 °F - 60.8 °F 83% 29.93 in 10.0 mi SSW 13.8 mph 24.2 mph N/A   Overcast
12:55 AM 66.2 °F - 60.8 °F 83% 29.91 in 10.0 mi SSW 16.1 mph 27.6 mph N/A   Mostly Cloudy
1:15 AM 66.2 °F - 60.8 °F 83% 29.90 in 10.0 mi SSW 12.7 mph - N/A   Mostly Cloudy
1:35 AM 66.2 °F - 60.8 °F 83% 29.89 in 10.0 mi SSW 13.8 mph 20.7 mph N/A   Overcast
1:55 AM 66.2 °F - 60.8 °F 83% 29.88 in 10.0 mi SSW 13.8 mph 20.7 mph 0.01 in   Overcast
2:15 AM 64.4 °F - 60.8 °F 88% 29.87 in 10.0 mi SW 9.2 mph - 0.04 in   Overcast
2:35 AM 64.4 °F - 62.6 °F 94% 29.85 in 10.0 mi SSW 9.2 mph - 0.17 in   Overcast
2:55 AM 64.4 °F - 62.6 °F 94% 29.84 in 10.0 mi SSW 9.2 mph - 0.22 in   Overcast
3:35 AM 64.4 °F - 62.6 °F 94% 29.82 in 10.0 mi SW 13.8 mph 24.2 mph 0.14 in   Mostly Cloudy
3:55 AM 64.4 °F - 62.6 °F 94% 29.80 in 10.0 mi SSW 15.0 mph - 0.25 in   Overcast
4:15 AM 64.4 °F - 62.6 °F 94% 29.79 in 10.0 mi SW 11.5 mph - 0.01 in   Overcast
4:35 AM 64.4 °F - 62.6 °F 94% 29.79 in 10.0 mi SW 10.4 mph - 0.01 in   Overcast
4:55 AM 64.4 °F - 60.8 °F 88% 29.80 in 10.0 mi WSW 12.7 mph - 0.02 in   Mostly Cloudy
5:15 AM 64.4 °F - 60.8 °F 88% 29.80 in 10.0 mi WSW 13.8 mph 20.7 mph N/A   Mostly Cloudy
5:35 AM 64.4 °F - 60.8 °F 88% 29.81 in 10.0 mi WSW 11.5 mph 20.7 mph N/A   Overcast
5:55 AM 64.4 °F - 60.8 °F 88% 29.79 in 10.0 mi SW 11.5 mph 18.4 mph N/A   Overcast
6:15 AM 64.4 °F - 60.8 °F 88% 29.80 in 10.0 mi WSW 13.8 mph 20.7 mph N/A   Overcast
6:35 AM 64.4 °F - 60.8 °F 88% 29.80 in 10.0 mi WSW 10.4 mph 17.3 mph N/A   Overcast
7:15 AM 64.4 °F - 60.8 °F 88% 29.81 in 10.0 mi WSW 10.4 mph 16.1 mph N/A   Overcast
7:35 AM 64.4 °F - 60.8 °F 88% 29.81 in 10.0 mi WSW 11.5 mph - N/A   Overcast
7:55 AM 64.4 °F - 59.0 °F 83% 29.82 in 10.0 mi WSW 9.2 mph - N/A   Overcast
8:35 AM 62.6 °F - 59.0 °F 88% 29.82 in 10.0 mi West 5.8 mph 16.1 mph N/A   Overcast
8:55 AM 64.4 °F - 59.0 °F 83% 29.83 in 10.0 mi WSW 10.4 mph - N/A   Overcast
9:15 AM 64.4 °F - 59.0 °F 83% 29.83 in 10.0 mi West 10.4 mph 17.3 mph N/A   Overcast
9:35 AM 64.4 °F - 57.2 °F 77% 29.83 in 10.0 mi West 10.4 mph 19.6 mph N/A   Overcast
9:55 AM 64.4 °F - 57.2 °F 77% 29.82 in 10.0 mi West 13.8 mph 19.6 mph N/A   Overcast
10:15 AM 66.2 °F - 57.2 °F 73% 29.81 in 10.0 mi WSW 16.1 mph 20.7 mph N/A   Mostly Cloudy
10:35 AM 66.2 °F - 57.2 °F 73% 29.81 in 10.0 mi West 13.8 mph 20.7 mph N/A   Scattered Clouds
10:55 AM 69.8 °F - 57.2 °F 64% 29.81 in 10.0 mi West 8.1 mph 20.7 mph N/A   Partly Cloudy
11:15 AM 69.8 °F - 57.2 °F 64% 29.81 in 10.0 mi West 12.7 mph 20.7 mph N/A   Mostly Cloudy
11:35 AM 69.8 °F - 55.4 °F 60% 29.80 in 10.0 mi West 8.1 mph - N/A   Overcast
11:55 AM 69.8 °F - 53.6 °F 56% 29.80 in 10.0 mi WNW 8.1 mph 20.7 mph N/A   Overcast
12:15 PM 69.8 °F - 55.4 °F 60% 29.79 in 10.0 mi WNW 9.2 mph 17.3 mph N/A   Mostly Cloudy
12:35 PM 69.8 °F - 50.0 °F 49% 29.79 in 10.0 mi NW 6.9 mph 18.4 mph N/A   Scattered Clouds
1:15 PM 71.6 °F - 46.4 °F 41% 29.80 in 10.0 mi WNW 15.0 mph 23.0 mph N/A   Clear
1:35 PM 69.8 °F - 46.4 °F 43% 29.80 in 10.0 mi WNW 10.4 mph 19.6 mph N/A   Scattered Clouds
1:55 PM 68.0 °F - 44.6 °F 43% 29.82 in 10.0 mi NW 11.5 mph 29.9 mph N/A   Mostly Cloudy
2:15 PM 68.0 °F - 46.4 °F 46% 29.83 in 10.0 mi NW 15.0 mph 27.6 mph N/A   Mostly Cloudy
2:35 PM 66.2 °F - 42.8 °F 43% 29.84 in 10.0 mi NNW 11.5 mph 31.1 mph N/A   Mostly Cloudy
2:55 PM 64.4 °F - 41.0 °F 42% 29.86 in 10.0 mi NNW 16.1 mph 26.5 mph N/A   Partly Cloudy
3:15 PM 62.6 °F - 39.2 °F 42% 29.87 in 10.0 mi NNW 10.4 mph 20.7 mph N/A   Partly Cloudy
3:35 PM 62.6 °F - 39.2 °F 42% 29.89 in 10.0 mi NW 15.0 mph 24.2 mph N/A   Clear
3:55 PM 62.6 °F - 37.4 °F 39% 29.90 in 10.0 mi NNW 16.1 mph 24.2 mph N/A   Clear
4:15 PM 60.8 °F - 37.4 °F 42% 29.90 in 10.0 mi North 9.2 mph 18.4 mph N/A   Clear
4:35 PM 60.8 °F - 37.4 °F 42% 29.92 in 10.0 mi NNW 10.4 mph 17.3 mph N/A   Clear
4:55 PM 59.0 °F - 35.6 °F 42% 29.93 in 10.0 mi NNW 9.2 mph 19.6 mph N/A   Clear
5:15 PM 57.2 °F - 35.6 °F 44% 29.95 in 10.0 mi NW 5.8 mph - N/A   Clear
5:35 PM 55.4 °F - 37.4 °F 51% 29.96 in 10.0 mi NNW 5.8 mph 17.3 mph N/A   Clear
5:55 PM 55.4 °F - 35.6 °F 47% 29.98 in 10.0 mi NNW 8.1 mph 18.4 mph N/A   Clear
6:15 PM 55.4 °F - 35.6 °F 47% 29.99 in 10.0 mi NNW 10.4 mph 18.4 mph N/A   Clear
6:35 PM 53.6 °F - 35.6 °F 51% 30.01 in 10.0 mi NNW 6.9 mph - N/A   Clear
6:55 PM 53.6 °F - 35.6 °F 51% 30.02 in 10.0 mi NNW 5.8 mph - N/A   Clear
7:15 PM 53.6 °F - 35.6 °F 51% 30.04 in 10.0 mi North 6.9 mph - N/A   Clear
7:55 PM 51.8 °F - 33.8 °F 50% 30.06 in 10.0 mi North 8.1 mph - N/A   Clear
8:15 PM 51.8 °F - 32.0 °F 47% 30.07 in 10.0 mi NNW 5.8 mph - N/A   Clear
8:35 PM 51.8 °F - 32.0 °F 47% 30.08 in 10.0 mi NNW 9.2 mph 19.6 mph N/A   Clear
8:55 PM 50.0 °F - 32.0 °F 50% 30.09 in 10.0 mi NNW 5.8 mph - N/A   Clear
9:35 PM 48.2 °F - 32.0 °F 54% 30.11 in 10.0 mi North 3.5 mph - N/A   Clear
9:55 PM 48.2 °F - 32.0 °F 54% 30.11 in 10.0 mi NNW 3.5 mph - N/A   Clear
10:15 PM 48.2 °F - 32.0 °F 54% 30.12 in 10.0 mi NNW 5.8 mph - N/A   Clear
10:35 PM 48.2 °F - 32.0 °F 54% 30.12 in 10.0 mi NNW 3.5 mph - N/A   Clear
10:55 PM 48.2 °F - 32.0 °F 54% 30.13 in 10.0 mi NNW 4.6 mph - N/A   Clear
11:15 PM 48.2 °F - 32.0 °F 54% 30.13 in 10.0 mi NNW 4.6 mph - N/A   Clear
11:35 PM 46.4 °F 45.2 °F 32.0 °F 57% 30.14 in 10.0 mi NNW 3.5 mph - N/A   Clear
11:55 PM 46.4 °F 44.3 °F 32.0 °F 57% 30.14 in 10.0 mi NNW 4.6 mph - N/A   Clear